Time;durP1;ratioP1;P1;durP2;ratioP2;P2;SDS_P1;SDS_P2;PMS_P1;PMS_P2;Temp;Humidity;BMP_temperature;BMP_pressure;BME280_temperature;BME280_humidity;BME280_pressure;Samples;Min_cycle;Max_cycle;Signal;HPM_P1;HPM_P2
2023/10/15 00:06:19;;;;;;;9.98;4.72;;;;;;;13.86;100.00;99992.00;4974758;28;20045;-78
2023/10/15 00:12:06;;;;;;;1.92;1.80;;;;;;;14.28;100.00;99995.53;4974639;28;20041;-77
2023/10/15 00:18:00;;;;;;;2.58;2.38;;;;;;;14.38;100.00;100001.47;4973938;28;20049;-78
2023/10/15 00:20:38;;;;;;;3.65;2.75;;;;;;;14.22;100.00;99989.50;4973096;28;20455;-77
2023/10/15 00:23:06;;;;;;;3.97;3.58;;;;;;;14.21;100.00;99979.84;5003713;28;20047;-77
2023/10/15 00:28:54;;;;;;;3.30;2.63;;;;;;;14.39;100.00;100076.25;4973602;28;20046;-80
2023/10/15 00:31:19;;;;;;;3.90;3.60;;;;;;;14.44;100.00;100072.59;4972361;28;20042;-79
2023/10/15 00:33:46;;;;;;;2.67;2.47;;;;;;;14.51;100.00;100076.84;4973317;28;20113;-77
2023/10/15 00:39:37;;;;;;;5.75;2.97;;;;;;;13.00;100.00;99893.50;4977842;28;20084;-79
2023/10/15 00:42:02;;;;;;;6.93;5.32;;;;;;;14.06;100.00;100087.44;4977106;28;20125;-78
2023/10/15 00:44:28;;;;;;;3.47;2.22;;;;;;;14.07;100.00;100088.31;4977913;28;20057;-78
2023/10/15 00:46:54;;;;;;;12.95;3.90;;;;;;;14.08;100.00;100071.59;4975906;28;20043;-76
2023/10/15 00:52:44;;;;;;;2.72;2.47;;;;;;;14.54;100.00;100083.88;4976467;28;20057;-76
2023/10/15 00:59:18;;;;;;;2.13;1.98;;;;;;;14.32;100.00;100078.13;4977023;28;20452;-78
2023/10/15 01:04:24;;;;;;;4.07;2.42;;;;;;;13.44;100.00;99986.69;4976868;28;20109;-78
2023/10/15 01:10:43;;;;;;;2.05;1.83;;;;;;;13.92;100.00;100056.06;4977345;28;20422;-79
2023/10/15 01:13:20;;;;;;;3.05;2.83;;;;;;;13.40;100.00;99958.66;4975642;28;20050;-79
2023/10/15 01:21:58;;;;;;;4.82;3.42;;;;;;;13.87;100.00;99988.47;4975539;28;20061;-78
2023/10/15 01:24:25;;;;;;;1.40;1.30;;;;;;;13.91;100.00;100027.09;4980772;28;20058;-76
2023/10/15 01:26:59;;;;;;;2.17;1.25;;;;;;;13.25;100.00;99965.03;4959931;28;20047;-79
2023/10/15 01:29:28;;;;;;;3.65;3.33;;;;;;;13.94;100.00;100063.94;4974809;28;20034;-77
2023/10/15 01:32:31;;;;;;;0.73;0.73;;;;;;;13.88;100.00;100064.94;4976495;28;20093;-76
2023/10/15 01:34:59;;;;;;;3.38;3.08;;;;;;;13.38;100.00;99955.16;4976457;28;20031;-76
2023/10/15 01:37:25;;;;;;;4.38;2.78;;;;;;;13.83;100.00;100036.91;4963128;28;20031;-77
2023/10/15 01:40:26;;;;;;;3.05;2.85;;;;;;;13.79;100.00;100064.22;4956527;28;20099;-76
2023/10/15 01:42:40;;;;;;;3.10;2.67;;;;;;;13.25;100.00;99955.38;4956954;28;20110;-76
2023/10/15 01:51:06;;;;;;;2.83;1.65;;;;;;;13.23;100.00;99966.84;4957252;28;20066;-76
2023/10/15 01:53:37;;;;;;;2.97;1.90;;;;;;;13.50;100.00;100026.97;4958024;28;20038;-77
2023/10/15 01:56:44;;;;;;;5.03;4.53;;;;;;;13.73;100.00;100063.44;4977395;28;20443;-78
2023/10/15 02:03:17;;;;;;;3.20;2.90;;;;;;;13.75;100.00;100042.34;4977033;28;20081;-76
2023/10/15 02:05:44;;;;;;;3.75;2.15;;;;;;;13.70;100.00;100046.84;4976316;28;20045;-76
2023/10/15 02:08:25;;;;;;;3.67;2.88;;;;;;;13.37;100.00;100007.03;4976989;28;20026;-76
2023/10/15 02:11:28;;;;;;;3.42;3.03;;;;;;;13.58;100.00;100045.28;4977456;28;20038;-78
2023/10/15 02:13:55;;;;;;;2.70;1.80;;;;;;;13.55;100.00;100040.06;4971901;28;20475;-79
2023/10/15 02:16:29;;;;;;;3.47;1.27;;;;;;;13.51;100.00;100028.72;4976299;28;20449;-77
2023/10/15 02:18:58;;;;;;;21.05;2.72;;;;;;;12.99;100.00;99945.28;4974752;28;20375;-76
2023/10/15 02:24:47;;;;;;;3.75;2.85;;;;;;;13.07;100.00;100017.16;4975527;28;20093;-76
2023/10/15 02:27:30;;;;;;;2.92;2.70;;;;;;;12.56;100.00;99935.47;4974437;28;20039;-77
2023/10/15 02:30:35;;;;;;;6.85;4.47;;;;;;;12.92;100.00;100056.88;4976210;28;20037;-77
2023/10/15 02:33:25;;;;;;;1.48;1.15;;;;;;;13.28;100.00;100054.59;4969423;28;20041;-75
2023/10/15 02:35:54;;;;;;;3.75;3.45;;;;;;;13.40;100.00;100048.25;4974462;28;20060;-75
2023/10/15 02:38:25;;;;;;;3.22;2.67;;;;;;;12.50;100.00;99938.19;4975810;28;20081;-76
2023/10/15 02:40:58;;;;;;;2.33;2.13;;;;;;;13.10;100.00;100046.06;4974085;28;20126;-77
2023/10/15 02:43:27;;;;;;;4.28;3.40;;;;;;;13.19;100.00;100021.34;4975616;28;20030;-77
2023/10/15 02:45:53;;;;;;;3.58;1.77;;;;;;;13.17;100.00;100001.19;4973350;28;20038;-77
2023/10/15 02:48:22;;;;;;;3.05;2.75;;;;;;;13.13;100.00;99997.72;4975443;28;20066;-77
2023/10/15 02:51:09;;;;;;;2.90;2.58;;;;;;;13.25;100.00;100030.88;4975065;28;20026;-78
2023/10/15 02:56:57;;;;;;;3.35;3.03;;;;;;;13.04;100.00;100027.75;4974997;28;20537;-77
2023/10/15 02:59:29;;;;;;;2.03;1.85;;;;;;;12.96;100.00;99986.63;4975099;28;20026;-76
2023/10/15 03:01:56;;;;;;;2.75;1.52;;;;;;;13.08;100.00;100004.84;4974556;28;20054;-78
2023/10/15 03:11:32;;;;;;;1.50;1.35;;;;;;;13.17;100.00;100030.16;4974162;28;20041;-77
2023/10/15 03:14:00;;;;;;;5.28;1.70;;;;;;;12.65;100.00;99935.31;4974815;28;20501;-78
2023/10/15 03:16:33;;;;;;;4.30;2.22;;;;;;;12.15;100.00;99926.47;4974296;28;20054;-79
2023/10/15 03:19:09;;;;;;;3.13;2.03;;;;;;;12.94;100.00;100031.41;5004168;28;20046;-77
2023/10/15 03:21:39;;;;;;;1.23;1.13;;;;;;;12.55;100.00;100009.19;4974434;28;20534;-78
2023/10/15 03:24:05;;;;;;;2.22;2.03;;;;;;;12.94;100.00;100051.59;4974752;28;20035;-78
2023/10/15 03:29:56;;;;;;;8.70;2.38;;;;;;;12.97;100.00;100027.84;4974752;28;20126;-78
2023/10/15 03:32:30;;;;;;;8.65;5.22;;;;;;;12.53;100.00;99945.19;4974920;28;20022;-78
2023/10/15 03:35:06;;;;;;;3.47;3.17;;;;;;;12.84;100.00;100006.13;5004491;28;20042;-76
2023/10/15 03:41:29;;;;;;;2.88;2.67;;;;;;;12.85;100.00;100021.00;4972042;28;20046;-78
2023/10/15 03:44:01;;;;;;;4.60;2.92;;;;;;;12.86;100.00;100020.13;4967452;28;20511;-77
2023/10/15 03:46:33;;;;;;;3.63;3.35;;;;;;;12.52;100.00;99933.78;4974149;28;20042;-79
2023/10/15 03:48:59;;;;;;;8.10;2.45;;;;;;;12.27;100.00;99899.09;4972476;28;20045;-78
2023/10/15 03:51:27;;;;;;;4.18;3.85;;;;;;;13.02;100.00;100013.72;4971534;28;20042;-79
2023/10/15 03:53:52;;;;;;;4.57;2.78;;;;;;;13.10;100.00;99990.75;4970617;28;20209;-79
2023/10/15 03:56:27;;;;;;;3.38;2.85;;;;;;;13.13;100.00;100021.44;4974619;28;20446;-76
2023/10/15 03:58:53;;;;;;;5.82;4.05;;;;;;;12.46;100.00;99918.97;4973972;28;20050;-76
2023/10/15 04:01:20;;;;;;;23.33;4.22;;;;;;;12.71;100.00;99960.66;4962080;28;20042;-76
2023/10/15 04:07:19;;;;;;;11.07;4.05;;;;;;;12.50;100.00;99906.59;4957379;28;20041;-75
2023/10/15 04:09:45;;;;;;;3.30;3.00;;;;;;;13.06;100.00;100012.78;4973835;28;20121;-76
2023/10/15 04:12:10;;;;;;;2.15;1.95;;;;;;;13.01;100.00;99998.81;4970586;28;20039;-76
2023/10/15 04:14:37;;;;;;;1.98;1.80;;;;;;;12.83;100.00;99968.41;4972817;28;20030;-77
2023/10/15 04:17:06;;;;;;;3.10;2.90;;;;;;;12.56;100.00;99897.75;4953573;28;20034;-75
2023/10/15 04:19:31;;;;;;;2.67;2.47;;;;;;;12.34;100.00;99876.19;4965047;28;20054;-76
2023/10/15 04:25:25;;;;;;;1.73;1.63;;;;;;;12.43;100.00;99916.41;4972051;28;20181;-76
2023/10/15 04:31:21;;;;;;;6.13;4.75;;;;;;;12.41;100.00;99993.63;4974254;28;20046;-75
2023/10/15 04:33:50;;;;;;;4.82;3.08;;;;;;;11.79;100.00;99914.63;4972159;28;20047;-76
2023/10/15 04:36:16;;;;;;;4.38;2.17;;;;;;;11.39;100.00;99888.84;4969510;28;20046;-76
2023/10/15 04:42:59;;;;;;;5.95;2.42;;;;;;;11.97;100.00;100000.34;4971305;28;20038;-76
2023/10/15 04:46:11;;;;;;;1.23;1.00;;;;;;;12.31;100.00;100008.63;5004547;28;20065;-77
2023/10/15 04:52:22;;;;;;;2.65;2.45;;;;;;;12.35;100.00;99999.81;4972185;28;20066;-77
2023/10/15 04:54:48;;;;;;;1.38;1.27;;;;;;;12.18;100.00;99952.72;4964104;28;20503;-76
2023/10/15 04:57:13;;;;;;;4.15;3.65;;;;;;;12.36;100.00;99963.84;4971350;28;20030;-77
2023/10/15 05:03:00;;;;;;;4.97;4.50;;;;;;;11.80;100.00;99895.38;4973954;28;20165;-78
2023/10/15 05:05:26;;;;;;;6.65;2.15;;;;;;;11.97;100.00;99898.66;4973435;28;20117;-77
2023/10/15 05:07:57;;;;;;;6.68;3.92;;;;;;;12.72;100.00;100011.59;4973329;28;20041;-78
2023/10/15 05:13:44;;;;;;;2.53;2.17;;;;;;;12.78;100.00;99986.03;4973457;28;20093;-77
2023/10/15 05:16:10;;;;;;;6.85;4.80;;;;;;;12.15;100.00;99902.78;4971943;28;20038;-77
2023/10/15 05:18:36;;;;;;;5.13;4.22;;;;;;;11.88;100.00;99885.63;4972991;28;20065;-76
2023/10/15 05:24:23;;;;;;;4.53;4.07;;;;;;;12.50;100.00;99993.44;4976814;28;20105;-76
2023/10/15 05:30:12;;;;;;;2.80;2.60;;;;;;;12.42;100.00;99966.41;4976784;28;20085;-75
2023/10/15 05:32:38;;;;;;;2.25;2.10;;;;;;;12.64;100.00;99998.50;4976311;28;20065;-75
2023/10/15 05:35:08;;;;;;;4.18;3.28;;;;;;;12.10;100.00;99912.47;4976985;28;20066;-76
2023/10/15 05:37:37;;;;;;;5.28;3.92;;;;;;;12.60;100.00;100012.63;4976140;28;20394;-76
2023/10/15 05:40:06;;;;;;;4.22;3.05;;;;;;;11.53;100.00;99823.00;4975230;28;20066;-75
2023/10/15 05:42:31;;;;;;;4.40;2.72;;;;;;;11.96;100.00;99907.44;4974564;28;20039;-77
2023/10/15 05:51:39;;;;;;;4.28;3.95;;;;;;;12.87;100.00;99927.94;4973424;28;20042;-78
2023/10/15 05:54:05;;;;;;;3.78;3.47;;;;;;;12.73;100.00;99937.81;4975108;28;20047;-76
2023/10/15 05:56:30;;;;;;;5.05;4.28;;;;;;;12.81;100.00;99917.53;4976497;28;20030;-77
2023/10/15 05:59:16;;;;;;;5.72;4.43;;;;;;;13.34;100.00;100003.56;4976429;28;20043;-75
2023/10/15 06:01:42;;;;;;;3.70;3.42;;;;;;;12.73;100.00;99892.22;4963821;28;20133;-78
2023/10/15 06:04:07;;;;;;;3.85;3.58;;;;;;;13.40;100.00;99985.00;4975970;28;20035;-77
2023/10/15 06:06:33;;;;;;;4.95;4.55;;;;;;;12.81;100.00;99885.06;4975723;28;20065;-77
2023/10/15 06:12:20;;;;;;;4.95;3.88;;;;;;;13.26;100.00;99941.28;4976000;28;20422;-77
2023/10/15 06:18:09;;;;;;;7.93;5.65;;;;;;;13.93;100.00;99991.00;4975331;28;20041;-77
2023/10/15 06:23:56;;;;;;;5.22;4.72;;;;;;;14.20;100.00;99988.69;4975794;28;20089;-77
2023/10/15 06:26:21;;;;;;;2.28;2.08;;;;;;;14.31;100.00;99994.59;4975210;28;20480;-76
2023/10/15 06:28:46;;;;;;;4.68;3.50;;;;;;;14.32;100.00;99977.84;4975476;28;20054;-83
2023/10/15 06:31:12;;;;;;;3.70;2.30;;;;;;;13.85;100.00;99877.75;4976347;28;20475;-79
2023/10/15 06:36:59;;;;;;;3.33;2.92;;;;;;;14.68;100.00;99957.69;4990571;28;20218;-79
2023/10/15 06:39:27;;;;;;;4.38;3.90;;;;;;;14.92;100.00;99990.53;4983544;28;20387;-79
2023/10/15 06:45:19;;;;;;;3.15;2.28;;;;;;;14.65;100.00;99912.84;4975397;28;20494;-78
2023/10/15 06:47:45;;;;;;;3.75;2.80;;;;;;;15.26;100.00;99989.69;4975512;28;20078;-77
2023/10/15 06:50:11;;;;;;;5.40;3.35;;;;;;;15.30;100.00;99967.56;4975661;28;20348;-79
2023/10/15 06:52:41;;;;;;;5.30;4.80;;;;;;;15.34;100.00;99944.56;4974667;28;20081;-78
2023/10/15 06:58:31;;;;;;;4.03;3.05;;;;;;;15.15;100.00;99864.91;4975136;28;20045;-78
2023/10/15 07:04:18;;;;;;;4.75;4.35;;;;;;;15.43;100.00;99832.38;4974926;28;20038;-77
2023/10/15 07:06:44;;;;;;;11.98;4.22;;;;;;;15.93;100.00;99912.91;4974904;28;20039;-79
2023/10/15 07:09:09;;;;;;;5.72;3.80;;;;;;;15.77;100.00;99811.97;4974856;28;20477;-80
2023/10/15 07:11:35;;;;;;;2.45;2.17;;;;;;;16.67;100.00;99940.59;4974689;28;20447;-80
2023/10/15 07:14:02;;;;;;;29.58;2.58;;;;;;;16.54;100.00;99891.56;4975275;28;20438;-76
2023/10/15 07:16:28;;;;;;;3.25;2.95;;;;;;;16.62;100.00;99900.16;4972873;28;20089;-76
2023/10/15 07:18:54;;;;;;;4.97;4.47;;;;;;;16.79;100.00;99883.72;4974200;28;20051;-80
2023/10/15 07:24:41;;;;;;;4.43;3.67;;;;;;;17.08;100.00;99919.81;4974322;28;20045;-78
2023/10/15 07:30:30;;;;;;;2.92;2.58;;;;;;;17.23;100.00;99888.38;4975028;28;20038;-83
2023/10/15 07:32:59;;;;;;;2.35;2.10;;;;;;;17.38;100.00;99922.31;4970808;28;20076;-78
2023/10/15 07:35:30;;;;;;;3.58;3.25;;;;;;;16.98;100.00;99862.75;4998889;28;20027;-81
2023/10/15 07:38:02;;;;;;;1.77;1.67;;;;;;;17.51;100.00;99925.38;4975320;28;20050;-82
2023/10/15 07:43:49;;;;;;;2.67;2.45;;;;;;;17.91;100.00;99935.41;4974272;28;20065;-79
2023/10/15 07:46:14;;;;;;;2.25;2.05;;;;;;;17.55;100.00;99857.16;5003709;28;20395;-80
2023/10/15 07:48:40;;;;;;;5.85;3.28;;;;;;;17.65;100.00;99912.50;4973482;28;20101;-81
2023/10/15 07:51:06;;;;;;;3.20;1.92;;;;;;;17.73;100.00;99902.44;4974108;28;20038;-79
2023/10/15 07:56:54;;;;;;;1.45;1.05;;;;;;;17.62;100.00;99848.03;4974331;28;20134;-82
2023/10/15 08:02:49;;;;;;;6.05;2.03;;;;;;;18.29;100.00;99908.31;4974324;28;20046;-81
2023/10/15 08:05:17;;;;;;;2.05;1.85;;;;;;;18.18;100.00;99879.50;4971676;28;20027;-81
2023/10/15 08:07:43;;;;;;;0.82;0.82;;;;;;;18.01;100.00;99808.50;4956099;28;20074;-79
2023/10/15 08:13:30;;;;;;;2.15;1.85;;;;;;;18.11;100.00;99832.88;4973613;28;20126;-81
2023/10/15 08:15:56;;;;;;;2.28;2.08;;;;;;;18.82;100.00;99915.03;4969621;28;20042;-87
2023/10/15 08:18:21;;;;;;;1.10;1.00;;;;;;;18.69;100.00;99896.91;4971995;28;20178;-84
2023/10/15 08:20:47;;;;;;;3.47;1.75;;;;;;;19.07;100.00;99910.38;4973044;28;20026;-79
2023/10/15 08:26:34;;;;;;;2.88;2.65;;;;;;;19.03;100.00;99900.81;4953789;28;20560;-83
2023/10/15 08:28:59;;;;;;;2.58;1.30;;;;;;;18.50;100.00;99794.97;4964090;28;20108;-83
2023/10/15 08:31:25;;;;;;;1.85;1.55;;;;;;;19.03;100.00;99886.66;4973130;28;20407;-78
2023/10/15 08:33:50;;;;;;;0.55;0.55;;;;;;;18.64;100.00;99813.84;4971500;28;20045;-79
2023/10/15 08:39:47;;;;;;;1.40;1.30;;;;;;;19.44;100.00;99907.91;4971763;28;20383;-82
2023/10/15 08:42:15;;;;;;;3.00;1.67;;;;;;;19.28;100.00;99859.84;4955277;28;20035;-80
2023/10/15 08:44:44;;;;;;;2.22;2.03;;;;;;;19.14;100.00;99810.78;4971041;28;20109;-81
2023/10/15 08:47:50;;;;;;;0.25;0.25;;;;;;;19.79;100.00;99907.22;4973207;28;20027;-80
2023/10/15 08:50:16;;;;;;;2.15;1.85;;;;;;;19.75;100.00;99912.75;4986399;28;20347;-81
2023/10/15 08:56:05;;;;;;;2.10;1.90;;;;;;;19.85;100.00;99879.41;4974126;28;20101;-83
2023/10/15 09:01:54;;;;;;;1.40;1.30;;;;;;;20.09;100.00;99861.44;4976837;28;20062;-77
2023/10/15 09:04:20;;;;;;;6.10;4.20;;;;;;;20.28;100.00;99877.38;4976304;28;20058;-79
2023/10/15 09:06:47;;;;;;;1.35;1.25;;;;;;;20.27;100.00;99851.66;4975041;28;20035;-78
2023/10/15 09:09:13;;;;;;;4.85;2.28;;;;;;;20.16;100.00;99835.38;4976381;28;20051;-77
2023/10/15 09:11:42;;;;;;;1.85;1.75;;;;;;;19.86;100.00;99789.78;4976604;28;20559;-79
2023/10/15 09:14:13;;;;;;;1.83;1.73;;;;;;;20.20;100.00;99847.56;4976977;28;20510;-77
2023/10/15 09:16:48;;;;;;;1.55;1.45;;;;;;;20.36;100.00;99877.84;4976128;28;20126;-81
2023/10/15 09:19:14;;;;;;;1.08;1.05;;;;;;;19.82;100.00;99767.75;4976030;28;20050;-82
2023/10/15 09:21:39;;;;;;;1.05;0.95;;;;;;;20.68;100.00;99867.44;4975011;28;20038;-82
2023/10/15 09:24:06;;;;;;;0.82;0.82;;;;;;;20.29;100.00;99764.53;4976507;28;20031;-83
2023/10/15 09:26:37;;;;;;;3.50;0.93;;;;;;;20.66;100.00;99832.84;4974963;28;20051;-85
2023/10/15 09:29:17;;;;;;;0.93;0.88;;;;;;;20.93;100.00;99837.72;4977771;28;20031;-88
2023/10/15 09:31:44;;;;;;;0.85;0.85;;;;;;;20.97;100.00;99799.25;4976789;28;20126;-88
2023/10/15 09:34:11;;;;;;;1.60;1.35;;;;;;;20.24;100.00;99740.78;4977824;28;20093;-85
2023/10/15 09:36:38;;;;;;;3.45;2.80;;;;;;;20.57;100.00;99747.16;4975287;28;20034;-87
2023/10/15 09:39:12;;;;;;;1.63;1.50;;;;;;;21.22;100.00;99838.84;4976824;28;20087;-80
2023/10/15 09:44:41;;;;;;;4.15;1.83;;;;;;;21.33;99.58;99832.06;4975858;28;20120;-86
2023/10/15 09:50:31;;;;;;;2.15;1.95;;;;;;;21.22;97.25;99747.25;4977375;28;20046;-86
2023/10/15 09:53:01;;;;;;;0.52;0.52;;;;;;;21.82;91.03;99830.28;4976958;28;20117;-86
2023/10/15 09:58:48;;;;;;;4.38;0.98;;;;;;;21.70;86.56;99778.41;4976696;28;20090;-88
2023/10/15 10:01:28;;;;;;;0.57;0.57;;;;;;;22.22;81.42;99816.47;4975674;28;20465;-86
2023/10/15 10:04:40;;;;;;;2.22;2.10;;;;;;;22.11;80.06;99817.06;4976175;28;20038;-86
2023/10/15 10:07:24;;;;;;;1.60;1.02;;;;;;;22.08;80.78;99796.72;4975436;28;20050;-86
2023/10/15 10:13:29;;;;;;;1.73;1.63;;;;;;;22.31;77.04;99773.16;4984694;28;20038;-85
2023/10/15 10:19:17;;;;;;;1.27;0.95;;;;;;;22.62;75.45;99792.75;4975745;28;20051;-86
2023/10/15 10:21:47;;;;;;;2.35;1.63;;;;;;;22.74;73.43;99784.00;4975888;28;20375;-86
2023/10/15 10:27:41;;;;;;;1.20;1.05;;;;;;;22.93;69.54;99770.34;4975177;28;20081;-86
2023/10/15 10:30:26;;;;;;;5.72;0.90;;;;;;;23.13;68.81;99788.75;4975490;28;20416;-85
2023/10/15 10:32:53;;;;;;;1.60;0.70;;;;;;;22.88;69.57;99703.75;4977342;28;20039;-85
2023/10/15 10:35:20;;;;;;;1.45;1.35;;;;;;;22.86;67.36;99675.38;4976128;28;20022;-85
2023/10/15 10:38:06;;;;;;;0.60;0.60;;;;;;;23.35;64.09;99771.34;4974386;28;20070;-86
2023/10/15 10:41:07;;;;;;;1.65;1.05;;;;;;;23.40;63.59;99761.19;4974790;28;20042;-86
2023/10/15 10:46:58;;;;;;;1.92;1.30;;;;;;;23.69;60.42;99723.63;4975766;28;20089;-87
2023/10/15 10:49:34;;;;;;;2.70;1.00;;;;;;;23.68;61.03;99695.97;4975195;28;20042;-86
2023/10/15 10:52:17;;;;;;;0.70;0.55;;;;;;;23.44;62.90;99652.06;5006197;28;20039;-86
2023/10/15 10:54:45;;;;;;;1.10;1.00;;;;;;;24.00;60.11;99742.13;4974649;28;20047;-86
2023/10/15 10:57:11;;;;;;;2.58;2.05;;;;;;;23.94;60.43;99717.53;4972029;28;20062;-86
2023/10/15 11:03:00;;;;;;;1.00;0.80;;;;;;;24.13;57.84;99731.41;4979304;28;20077;-87
2023/10/15 11:05:29;;;;;;;2.30;1.58;;;;;;;24.17;60.20;99729.41;4973754;28;20061;-85
2023/10/15 11:07:54;;;;;;;17.00;3.05;;;;;;;24.18;60.40;99712.34;4975048;28;20062;-85
2023/10/15 11:13:42;;;;;;;0.82;0.50;;;;;;;24.17;56.80;99699.91;4975322;28;20034;-86
2023/10/15 11:16:10;;;;;;;0.38;0.32;;;;;;;24.16;56.41;99707.09;4974290;28;20097;-86
2023/10/15 11:18:37;;;;;;;0.50;0.30;;;;;;;23.89;55.50;99650.00;4973408;28;20034;-85
2023/10/15 11:21:02;;;;;;;2.05;1.40;;;;;;;23.73;55.48;99599.22;4973242;28;20042;-85
2023/10/15 11:23:28;;;;;;;1.38;1.27;;;;;;;24.34;56.24;99704.97;4975437;28;20030;-84
2023/10/15 11:25:56;;;;;;;0.63;0.50;;;;;;;23.97;54.82;99643.13;4974482;28;20035;-84
2023/10/15 11:31:44;;;;;;;2.03;1.83;;;;;;;24.20;54.49;99703.22;4976940;28;20126;-85
2023/10/15 11:40:54;;;;;;;0.82;0.77;;;;;;;23.97;52.52;99623.53;4976725;28;20046;-87
2023/10/15 11:43:20;;;;;;;0.40;0.40;;;;;;;24.44;51.96;99671.22;4972740;28;20043;-84
2023/10/15 11:45:46;;;;;;;3.95;3.58;;;;;;;23.79;53.56;99578.28;4973800;28;20456;-80
2023/10/15 11:48:21;;;;;;;4.63;1.38;;;;;;;24.47;53.05;99680.00;4972446;28;20034;-86
2023/10/15 11:54:35;;;;;;;0.50;0.50;;;;;;;24.65;53.74;99678.72;4974631;28;20042;-82
2023/10/15 11:57:04;;;;;;;2.55;1.60;;;;;;;24.50;53.62;99674.47;4972868;28;20046;-84
2023/10/15 11:59:29;;;;;;;3.92;2.00;;;;;;;23.91;53.75;99587.28;4973927;28;20027;-86
2023/10/15 12:05:16;;;;;;;3.85;1.52;;;;;;;24.43;53.00;99658.75;4973833;28;20038;-89
2023/10/15 12:11:05;;;;;;;1.45;1.35;;;;;;;24.07;53.27;99586.22;4972245;28;20085;-83
2023/10/15 12:16:52;;;;;;;1.08;1.00;;;;;;;24.11;53.65;99615.38;4975166;28;20081;-84
2023/10/15 12:19:18;;;;;;;3.22;2.75;;;;;;;23.90;53.44;99564.13;4973753;28;20070;-83
2023/10/15 12:21:43;;;;;;;4.55;2.28;;;;;;;24.18;53.94;99616.69;4975446;28;20038;-85
2023/10/15 12:24:11;;;;;;;0.47;0.43;;;;;;;24.24;53.69;99628.81;4979588;28;20062;-84
2023/10/15 12:30:03;;;;;;;1.40;1.30;;;;;;;23.93;53.39;99555.03;4975178;28;20054;-87
2023/10/15 12:32:28;;;;;;;0.95;0.95;;;;;;;24.09;52.76;99544.09;4974871;28;20157;-85
2023/10/15 12:34:54;;;;;;;3.17;2.88;;;;;;;24.05;52.29;99542.63;4973930;28;20118;-86
2023/10/15 12:37:23;;;;;;;12.90;2.83;;;;;;;24.50;52.97;99610.09;4972609;28;20039;-84
2023/10/15 12:43:15;;;;;;;5.10;1.92;;;;;;;24.33;51.83;99552.25;4974396;28;20105;-86
2023/10/15 12:49:03;;;;;;;0.98;0.95;;;;;;;24.47;52.00;99615.63;4974060;28;20378;-88
2023/10/15 12:51:30;;;;;;;0.52;0.40;;;;;;;23.62;51.84;99463.34;4973609;28;20045;-88
2023/10/15 12:53:56;;;;;;;1.77;1.65;;;;;;;24.57;51.22;99606.84;4974049;28;20451;-88
2023/10/15 12:56:22;;;;;;;2.22;1.38;;;;;;;24.33;51.62;99550.41;4958730;28;20031;-85
2023/10/15 13:02:10;;;;;;;1.85;1.67;;;;;;;24.37;50.95;99525.09;4978288;28;20094;-83
2023/10/15 13:08:00;;;;;;;2.88;1.52;;;;;;;24.64;51.69;99578.63;4976066;28;20133;-80
2023/10/15 13:10:26;;;;;;;1.65;1.55;;;;;;;24.37;51.04;99529.59;4976589;28;20035;-85
2023/10/15 13:12:52;;;;;;;1.60;1.42;;;;;;;24.95;51.50;99613.09;4972612;28;20439;-78
2023/10/15 13:18:40;;;;;;;1.60;1.50;;;;;;;24.90;51.79;99612.59;4974760;28;20550;-79
2023/10/15 13:21:08;;;;;;;2.42;2.22;;;;;;;24.82;51.75;99584.50;4973725;28;20038;-80
2023/10/15 13:23:35;;;;;;;2.47;2.05;;;;;;;24.54;52.46;99582.09;4971919;28;20027;-77
2023/10/15 13:26:01;;;;;;;2.15;1.95;;;;;;;24.14;51.54;99494.56;4973524;28;20027;-79
2023/10/15 13:31:48;;;;;;;4.20;3.47;;;;;;;24.27;52.38;99512.44;4972200;28;20150;-78
2023/10/15 13:37:35;;;;;;;1.13;0.80;;;;;;;24.36;53.19;99488.50;4972708;28;20049;-79
2023/10/15 13:40:01;;;;;;;1.58;1.42;;;;;;;24.41;52.26;99534.63;4972415;28;20034;-79
2023/10/15 13:42:26;;;;;;;1.50;1.40;;;;;;;24.62;52.33;99558.22;4972600;28;20063;-79
2023/10/15 13:44:51;;;;;;;7.05;1.52;;;;;;;24.68;52.32;99573.00;4973498;28;20038;-79
2023/10/15 13:50:39;;;;;;;0.85;0.70;;;;;;;24.41;52.16;99531.09;4976429;28;20057;-79
2023/10/15 13:53:05;;;;;;;1.08;0.82;;;;;;;24.60;52.56;99546.75;4975995;28;20031;-78
2023/10/15 13:55:30;;;;;;;1.33;1.23;;;;;;;24.40;53.03;99529.38;4990644;28;20041;-79
2023/10/15 13:57:58;;;;;;;1.73;1.38;;;;;;;24.24;52.54;99508.16;4973896;28;20045;-79
2023/10/15 14:03:45;;;;;;;1.50;1.33;;;;;;;24.39;52.37;99541.06;4976121;28;20038;-78
2023/10/15 14:09:34;;;;;;;0.85;0.82;;;;;;;24.30;52.83;99545.25;4975545;28;20034;-79
2023/10/15 14:12:01;;;;;;;1.80;1.02;;;;;;;24.24;53.09;99551.06;5006747;28;20039;-79
2023/10/15 14:14:26;;;;;;;0.82;0.82;;;;;;;24.25;53.18;99560.81;4968264;28;20024;-79
2023/10/15 14:20:17;;;;;;;1.67;1.58;;;;;;;24.15;53.49;99541.84;4956935;28;20138;-78
2023/10/15 14:22:46;;;;;;;0.85;0.85;;;;;;;23.89;52.90;99500.78;4967833;28;20086;-78
2023/10/15 14:25:12;;;;;;;1.25;1.05;;;;;;;23.68;53.25;99470.97;4975256;28;20435;-78
2023/10/15 14:34:15;;;;;;;1.35;1.25;;;;;;;24.04;53.57;99579.25;4954570;28;20069;-79
2023/10/15 14:36:41;;;;;;;2.08;1.88;;;;;;;23.40;53.55;99469.31;4955738;28;20475;-77
2023/10/15 14:39:10;;;;;;;1.70;1.13;;;;;;;23.34;53.82;99451.88;4956024;28;20043;-79
2023/10/15 14:41:35;;;;;;;2.58;1.45;;;;;;;23.46;55.02;99505.53;4955839;28;20027;-80
2023/10/15 14:47:22;;;;;;;1.45;1.17;;;;;;;23.87;55.64;99576.88;4956696;28;20183;-79
2023/10/15 14:49:48;;;;;;;0.65;0.65;;;;;;;23.35;55.67;99479.50;4955661;28;20439;-77
2023/10/15 14:52:13;;;;;;;1.45;1.30;;;;;;;23.16;56.24;99464.69;4955530;28;20039;-80
2023/10/15 14:54:39;;;;;;;3.20;2.85;;;;;;;22.77;56.34;99409.31;4955206;28;20032;-78
2023/10/15 15:00:28;;;;;;;0.80;0.57;;;;;;;23.11;57.57;99487.38;4955600;28;20479;-78
2023/10/15 15:02:54;;;;;;;0.85;0.85;;;;;;;23.43;58.07;99551.25;4955469;28;20038;-79
2023/10/15 15:05:19;;;;;;;1.15;1.05;;;;;;;23.53;58.70;99577.34;4954904;28;20031;-78
2023/10/15 15:08:21;;;;;;;0.70;0.70;;;;;;;23.48;59.88;99579.44;4956014;28;20126;-78
2023/10/15 15:14:10;;;;;;;3.15;2.85;;;;;;;23.31;61.73;99575.22;4956216;28;20506;-78
2023/10/15 15:16:36;;;;;;;1.75;1.65;;;;;;;23.28;62.55;99570.06;4955163;28;20047;-79
2023/10/15 15:19:02;;;;;;;2.03;1.63;;;;;;;22.85;63.53;99513.13;4954946;28;20171;-78
2023/10/15 15:21:27;;;;;;;0.70;0.60;;;;;;;23.25;64.43;99572.06;4955465;28;20462;-78
2023/10/15 15:27:15;;;;;;;3.10;2.83;;;;;;;22.55;67.12;99484.75;4955311;28;20122;-76
2023/10/15 15:33:03;;;;;;;0.90;0.80;;;;;;;22.45;69.66;99489.84;4974326;28;20062;-78
2023/10/15 15:35:28;;;;;;;1.73;1.45;;;;;;;22.51;71.01;99493.91;4973145;28;20046;-79
2023/10/15 15:37:54;;;;;;;2.60;1.23;;;;;;;22.19;72.24;99469.19;4973843;28;20066;-79
2023/10/15 15:40:19;;;;;;;7.38;3.88;;;;;;;22.87;72.78;99575.41;4973930;28;20157;-78
2023/10/15 15:43:26;;;;;;;11.70;3.53;;;;;;;22.87;74.16;99584.28;4974042;28;20415;-78
2023/10/15 15:49:13;;;;;;;2.70;2.40;;;;;;;22.21;75.45;99491.38;4974117;28;20104;-79
2023/10/15 15:51:39;;;;;;;4.00;1.77;;;;;;;21.92;77.81;99472.66;4974008;28;20031;-78
2023/10/15 15:54:08;;;;;;;7.35;1.73;;;;;;;22.11;79.32;99504.44;4973931;28;20046;-79
2023/10/15 15:56:34;;;;;;;1.30;1.20;;;;;;;22.38;79.73;99547.28;4969173;28;20506;-79
2023/10/15 15:59:01;;;;;;;9.82;3.50;;;;;;;22.56;81.30;99593.41;4974270;28;20446;-78
2023/10/15 16:01:26;;;;;;;4.03;1.27;;;;;;;22.47;80.95;99585.97;4972460;28;20506;-77
2023/10/15 16:03:54;;;;;;;1.67;1.58;;;;;;;22.45;82.99;99599.44;4973621;28;20047;-79
2023/10/15 16:09:41;;;;;;;2.63;2.42;;;;;;;22.52;83.28;99608.81;4974260;28;20145;-79
2023/10/15 16:15:28;;;;;;;0.32;0.32;;;;;;;22.32;83.31;99574.44;4973330;28;20046;-77
2023/10/15 16:17:54;;;;;;;3.10;2.80;;;;;;;21.97;85.04;99521.31;4953208;28;20039;-77
2023/10/15 16:20:20;;;;;;;2.75;2.35;;;;;;;22.41;87.56;99602.41;4954734;28;20038;-78
2023/10/15 16:22:48;;;;;;;2.85;2.60;;;;;;;21.39;87.16;99432.22;4954593;28;20391;-78
2023/10/15 16:25:19;;;;;;;3.42;2.42;;;;;;;21.85;87.49;99511.38;4954628;28;20043;-78
2023/10/15 16:27:45;;;;;;;3.42;2.67;;;;;;;22.22;88.37;99589.28;4944838;28;20391;-78
2023/10/15 16:30:11;;;;;;;4.55;2.10;;;;;;;22.12;90.03;99575.59;4954036;28;20050;-78